Flight Track Log - Related Links

Times and Time Zones

All times are in EDT time to prevent confusion due to time zone crossing. See the ASQ5740 flight status page for this flight to view local times or setup timezone preferences in your user account.

Time Position Orientation Groundspeed Altitude Reporting Facility
EDT Latitude Longitude Course Direction KTS MPH feet Rate Location/Type
Mon 12:46:10 PM 38.9667 -77.4333 67° East 171 197 1,600  Level Potomac TRACON
Mon 12:47:10 PM 39.0333 -77.4500 349° North 246 283 4,000 2,700 Climbing Potomac TRACON
Mon 12:48:10 PM 39.1000 -77.4167 21° North 267 307 7,000 2,750 Climbing Potomac TRACON
Mon 12:49:10 PM 39.1833 -77.3833 17° North 296 341 9,500 2,100 Climbing Potomac TRACON
Mon 12:50:10 PM 39.1833 -77.2667 90° East 331 381 11,200 1,636 Climbing Potomac TRACON
Mon 12:51:00 PM 39.0669 -76.6826 67° East  Level FlightAware Approximate
Mon 12:51:55 PM 39.1253 -77.0767 111° Southeast 355 409 14,000  Level Washington Center
Mon 12:52:55 PM 39.0914 -76.9475 109° East 368 423 15,600 1,500 Climbing Washington Center
Mon 12:53:55 PM 39.0844 -76.7950 93° East 384 442 17,000 1,450 Climbing Washington Center
Mon 12:54:55 PM 39.1108 -76.6589 76° East 384 442 18,500 1,500 Climbing Washington Center
Mon 12:55:55 PM 39.1225 -76.5147 84° East 390 449 20,000 1,450 Climbing Washington Center
Mon 12:56:55 PM 39.1381 -76.3650 82° East 409 471 21,400 1,400 Climbing Washington Center
Mon 12:57:55 PM 39.1494 -76.2153 84° East 415 478 22,800 800 Climbing Washington Center
Mon 12:58:55 PM 39.1731 -76.0575 79° East 428 493 23,000 450 Climbing Washington Center
Mon 12:59:55 PM 39.1944 -75.8969 80° East 447 514 23,700 950 Climbing Washington Center
Mon 01:00:55 PM 39.2800 -75.7686 49° Northeast 440 506 24,900 1,000 Climbing Washington Center
Mon 01:01:55 PM 39.3719 -75.6506 45° Northeast 455 524 25,700 700 Climbing Washington Center
Mon 01:02:55 PM 39.4678 -75.5269 45° Northeast 460 529 26,300 600 Climbing Washington Center
Mon 01:03:55 PM 39.5656 -75.4006 45° Northeast 475 547 26,900 600 Climbing Washington Center
Mon 01:04:55 PM 39.6631 -75.2708 46° Northeast 487 560 27,500 700 Climbing Washington Center
Mon 01:05:55 PM 39.7689 -75.1192 48° Northeast 493 567 28,300 539 Climbing Washington Center
Mon 01:07:42 PM 39.9356 -74.8831 47° Northeast 527 606 29,000 256 Climbing New York Center
Mon 01:08:39 PM 40.0322 -74.7425 48° Northeast 522 601 29,000  Level New York Center
Mon 01:09:39 PM 40.1306 -74.6042 47° Northeast 522 601 29,000  Level New York Center
Mon 01:10:40 PM 40.2222 -74.4761 47° Northeast 522 601 29,000  Level New York Center
Mon 01:11:40 PM 40.3322 -74.3567 40° Northeast 522 601 29,000  Level New York Center
Mon 01:12:40 PM 40.4442 -74.2372 39° Northeast 516 594 29,000  Level New York Center
Mon 01:13:41 PM 40.5558 -74.1172 39° Northeast 516 594 29,000  Level New York Center
Mon 01:14:41 PM 40.6656 -73.9967 40° Northeast 516 594 29,000  Level New York Center
Mon 01:16:51 PM 40.9458 -73.7919 29° Northeast 498 573 29,000 -32 Level Boston Center
Mon 01:17:51 PM 41.0814 -73.7975 358° North 477 549 28,900  Descending Boston Center
Mon 01:18:51 PM 41.2167 -73.8061 357° North 477 549 29,000 50 Climbing Boston Center
Mon 01:19:51 PM 41.3522 -73.8089 359° North 477 549 29,000  Level Boston Center
Mon 01:20:51 PM 41.4856 -73.8144 358° North 477 549 29,000  Level Boston Center
Mon 01:21:51 PM 41.6189 -73.8203 358° North 477 549 29,000  Level Boston Center
Mon 01:22:51 PM 41.7542 -73.8203 360° North 477 549 29,000  Level Boston Center
Mon 01:24:03 PM 41.8814 -73.8231 359° North 467 537 29,000 -273 Level Boston Center
Mon 01:25:03 PM 42.0397 -73.8211 North 467 537 28,400 -950 Descending Boston Center
Mon 01:26:03 PM 42.1753 -73.8183 North 472 543 27,100 -700 Descending Boston Center
Mon 01:27:03 PM 42.3086 -73.8158 North 477 549 27,000 -50 Descending Boston Center
Mon 01:28:03 PM 42.4358 -73.8128 North 465 535 27,000  Level Boston Center
Mon 01:29:03 PM 42.5608 -73.8100 North 459 528 27,000  Level Boston Center
Mon 01:30:03 PM 42.6694 -73.8067 North 445 512 27,000  Level Boston Center
Mon 01:31:03 PM 42.7925 -73.7897 North 440 506 27,000  Level Boston Center
Mon 01:32:03 PM 42.9139 -73.7528 13° North 440 506 27,000 -700 Level Boston Center
Mon 01:33:03 PM 43.0331 -73.7125 14° North 445 512 25,600 -1,500 Descending Boston Center
Mon 01:34:03 PM 43.1692 -73.6669 14° North 450 518 24,000 -800 Descending Boston Center
Mon 01:35:03 PM 43.2883 -73.6294 13° North 450 518 24,000  Level Boston Center
Mon 01:36:03 PM 43.3994 -73.5603 24° Northeast 445 512 24,000 -350 Level Boston Center
Mon 01:37:03 PM 43.5044 -73.4733 31° Northeast 432 497 23,300 -1,050 Descending Boston Center
Mon 01:38:03 PM 43.6114 -73.3806 32° Northeast 440 506 21,900 -2,300 Descending Boston Center
Mon 01:39:03 PM 43.7206 -73.3106 25° Northeast 439 505 18,700 -2,750 Descending Boston Center
Mon 01:40:03 PM 43.8289 -73.2861 North 406 467 16,400 -2,600 Descending Boston Center
Mon 01:41:03 PM 43.9333 -73.2675 North 387 445 13,500 -2,700 Descending Boston Center
Mon 01:42:03 PM 44.0333 -73.2517 North 370 426 11,000 -1,850 Descending Boston Center
Mon 01:43:03 PM 44.1189 -73.2614 355° North 326 375 9,800 -1,450 Descending Boston Center
Mon 01:44:03 PM 44.1978 -73.2742 353° North 300 345 8,100 -1,750 Descending Boston Center
Mon 01:45:03 PM 44.2792 -73.2867 354° North 280 322 6,300 -1,800 Descending Boston Center
Mon 01:46:03 PM 44.3539 -73.2967 355° North 274 315 4,500 -1,800 Descending Boston Center
Mon 01:47:03 PM 44.4269 -73.3033 356° North 269 310 2,700 -1,800 Descending Boston Center

Login

Don't have an account? Register now (free) for customized features, flight alerts, and more!